Time;durP1;ratioP1;P1;durP2;ratioP2;P2;SDS_P1;SDS_P2;PMS_P1;PMS_P2;Temp;Humidity;BMP_temperature;BMP_pressure;BME280_temperature;BME280_humidity;BME280_pressure;Samples;Min_cycle;Max_cycle;Signal;HPM_P1;HPM_P2
2021/10/20 00:02:56;;;;;;;17.07;15.37;;;12.70;99.90;;;;;;6252307;28;20463;-63
2021/10/20 00:05:59;;;;;;;21.23;17.07;;;12.60;99.90;;;;;;6252556;28;20494;-62
2021/10/20 00:09:03;;;;;;;16.87;15.23;;;12.60;99.90;;;;;;6249469;28;20490;-63
2021/10/20 00:12:08;;;;;;;18.27;16.40;;;12.60;99.90;;;;;;6252664;28;20467;-63
2021/10/20 00:15:14;;;;;;;15.50;13.93;;;12.60;99.90;;;;;;6252118;28;20482;-63
2021/10/20 00:18:18;;;;;;;18.10;15.20;;;12.60;99.90;;;;;;6252137;28;20977;-61
2021/10/20 00:21:25;;;;;;;16.23;14.60;;;12.50;99.90;;;;;;6252003;28;20966;-63
2021/10/20 00:24:28;;;;;;;15.53;14.13;;;12.50;99.90;;;;;;6249912;28;20444;-63
2021/10/20 00:27:34;;;;;;;16.33;14.63;;;12.50;99.90;;;;;;6251958;28;20443;-63
2021/10/20 00:30:37;;;;;;;16.47;14.77;;;12.50;99.90;;;;;;6252893;28;20935;-64
2021/10/20 00:33:41;;;;;;;16.40;14.73;;;12.40;99.90;;;;;;6253265;28;20450;-64
2021/10/20 00:36:44;;;;;;;17.27;15.57;;;12.40;99.90;;;;;;6252140;28;20462;-64
2021/10/20 00:39:47;;;;;;;16.20;14.57;;;12.40;99.90;;;;;;6251750;28;20986;-64
2021/10/20 00:42:52;;;;;;;15.90;13.60;;;12.40;99.90;;;;;;6251626;28;20474;-64
2021/10/20 00:45:55;;;;;;;17.33;15.63;;;12.30;99.90;;;;;;6252370;28;20627;-64
2021/10/20 00:48:58;;;;;;;15.83;14.23;;;12.20;99.90;;;;;;6251980;28;20479;-63
2021/10/20 00:52:02;;;;;;;16.90;14.47;;;12.20;99.90;;;;;;6251829;28;20498;-64
2021/10/20 00:55:07;;;;;;;18.33;15.37;;;12.10;99.90;;;;;;6251773;28;20467;-64
2021/10/20 00:58:12;;;;;;;16.93;15.27;;;12.10;99.90;;;;;;6252233;28;20475;-64
2021/10/20 01:01:16;;;;;;;16.60;14.90;;;12.00;99.90;;;;;;6246796;28;20787;-64
2021/10/20 01:04:19;;;;;;;16.00;14.47;;;12.00;99.90;;;;;;6251658;28;20485;-64
2021/10/20 01:07:23;;;;;;;15.17;13.67;;;11.90;99.90;;;;;;6251362;28;20989;-64
2021/10/20 01:10:26;;;;;;;15.60;14.20;;;11.90;99.90;;;;;;6250840;28;20858;-64
2021/10/20 01:13:31;;;;;;;15.03;13.47;;;11.80;99.90;;;;;;6251392;28;20482;-64
2021/10/20 01:16:34;;;;;;;18.13;15.90;;;11.90;99.90;;;;;;6251011;28;20477;-64
2021/10/20 01:19:38;;;;;;;16.80;15.10;;;11.80;99.90;;;;;;6251425;28;20471;-64
2021/10/20 01:22:43;;;;;;;17.10;14.63;;;11.80;99.90;;;;;;6251084;28;20562;-64
2021/10/20 01:25:46;;;;;;;15.20;13.80;;;11.90;99.90;;;;;;6251100;28;20474;-64
2021/10/20 01:28:50;;;;;;;16.50;14.90;;;11.90;99.90;;;;;;6251000;28;20475;-63
2021/10/20 01:31:56;;;;;;;14.80;13.30;;;11.90;99.90;;;;;;6251541;28;20478;-63
2021/10/20 01:34:59;;;;;;;15.70;13.80;;;12.00;99.90;;;;;;6251446;28;20474;-64
2021/10/20 01:38:04;;;;;;;14.13;12.63;;;12.10;99.90;;;;;;6250485;28;20467;-62
2021/10/20 01:41:08;;;;;;;16.20;13.67;;;12.10;99.90;;;;;;6250765;28;20562;-63
2021/10/20 01:44:11;;;;;;;15.87;14.17;;;12.10;99.90;;;;;;6250974;28;20467;-63
2021/10/20 01:47:14;;;;;;;14.80;13.30;;;12.20;99.90;;;;;;6250801;28;20934;-63
2021/10/20 01:50:17;;;;;;;13.27;11.97;;;12.20;99.90;;;;;;6250679;28;20811;-64
2021/10/20 01:53:22;;;;;;;14.20;12.80;;;12.20;99.90;;;;;;6251390;28;20978;-64
2021/10/20 01:56:25;;;;;;;15.20;13.80;;;12.20;99.90;;;;;;6250413;28;20490;-63
2021/10/20 01:59:29;;;;;;;14.33;13.00;;;12.20;99.90;;;;;;6250498;28;20479;-63
2021/10/20 02:02:33;;;;;;;14.67;13.10;;;12.20;99.90;;;;;;6250331;28;20479;-64
2021/10/20 02:05:36;;;;;;;15.70;14.10;;;12.20;99.90;;;;;;6241343;28;20486;-64
2021/10/20 02:08:43;;;;;;;12.87;11.77;;;12.10;99.90;;;;;;6250129;28;20996;-63
2021/10/20 02:11:46;;;;;;;14.20;12.80;;;12.10;99.90;;;;;;6250541;28;20785;-64
2021/10/20 02:14:49;;;;;;;14.97;13.47;;;12.10;99.90;;;;;;6250003;28;20474;-63
2021/10/20 02:17:52;;;;;;;14.80;13.40;;;12.00;99.90;;;;;;6250344;28;20525;-64
2021/10/20 02:20:55;;;;;;;15.33;13.77;;;12.10;99.90;;;;;;6249969;28;20479;-63
2021/10/20 02:24:00;;;;;;;15.10;13.57;;;12.10;99.90;;;;;;6249826;28;20467;-63
2021/10/20 02:27:03;;;;;;;15.57;14.00;;;12.10;99.90;;;;;;6250197;28;20505;-64
2021/10/20 02:30:08;;;;;;;15.33;13.07;;;12.20;99.90;;;;;;6250378;28;20471;-63
2021/10/20 02:33:12;;;;;;;15.50;13.37;;;12.20;99.90;;;;;;6249896;28;20981;-64
2021/10/20 02:36:15;;;;;;;16.20;13.73;;;12.30;99.90;;;;;;6249468;28;20471;-64
2021/10/20 02:39:20;;;;;;;16.27;13.53;;;12.30;99.90;;;;;;6249642;28;20481;-64
2021/10/20 02:42:23;;;;;;;14.90;13.60;;;12.20;99.90;;;;;;6249524;28;20796;-64
2021/10/20 02:45:26;;;;;;;15.23;13.80;;;12.20;99.90;;;;;;6249755;28;20451;-62
2021/10/20 02:48:29;;;;;;;14.37;13.03;;;12.30;99.90;;;;;;6249452;28;20458;-64
2021/10/20 02:51:32;;;;;;;15.77;14.07;;;12.20;99.90;;;;;;6255602;28;20431;-64
2021/10/20 02:54:37;;;;;;;19.33;14.63;;;12.30;99.90;;;;;;6257748;28;20461;-64
2021/10/20 02:57:40;;;;;;;14.73;13.10;;;12.20;99.90;;;;;;6254244;28;20447;-64
2021/10/20 03:00:43;;;;;;;15.33;13.77;;;12.20;99.90;;;;;;6253836;28;20756;-64
2021/10/20 03:03:47;;;;;;;13.70;12.30;;;12.10;99.90;;;;;;6254654;28;20534;-60
2021/10/20 03:06:50;;;;;;;14.27;12.80;;;12.00;99.90;;;;;;6251106;28;20462;-62
2021/10/20 03:09:55;;;;;;;15.50;14.00;;;12.00;99.90;;;;;;6256896;28;20593;-61
2021/10/20 03:12:58;;;;;;;14.50;13.20;;;11.90;99.90;;;;;;6254522;28;20462;-62
2021/10/20 03:16:01;;;;;;;14.93;13.43;;;11.80;99.90;;;;;;6254136;28;20529;-61
2021/10/20 03:19:04;;;;;;;16.20;14.60;;;11.80;99.90;;;;;;6254019;28;20479;-63
2021/10/20 03:22:08;;;;;;;17.90;15.67;;;11.70;99.90;;;;;;6254501;28;20467;-63
2021/10/20 03:25:14;;;;;;;15.60;14.10;;;11.70;99.90;;;;;;6257413;28;20561;-63
2021/10/20 03:28:17;;;;;;;18.00;14.70;;;11.60;99.90;;;;;;6257598;28;20490;-62
2021/10/20 03:31:20;;;;;;;16.70;14.90;;;11.60;99.90;;;;;;6259065;28;20471;-62
2021/10/20 03:34:23;;;;;;;16.33;14.73;;;11.60;99.90;;;;;;6257481;28;20554;-62
2021/10/20 03:37:26;;;;;;;15.10;13.60;;;11.60;99.90;;;;;;6256708;28;20477;-62
2021/10/20 03:40:31;;;;;;;15.30;13.80;;;11.60;99.90;;;;;;6255858;28;20481;-64
2021/10/20 03:43:34;;;;;;;15.07;13.33;;;11.50;99.90;;;;;;6256956;28;20489;-63
2021/10/20 03:46:37;;;;;;;16.13;14.43;;;11.50;99.90;;;;;;6256384;28;20482;-63
2021/10/20 03:49:40;;;;;;;16.97;14.70;;;11.40;99.90;;;;;;6255677;28;20475;-62
2021/10/20 03:52:43;;;;;;;14.47;13.00;;;11.40;99.90;;;;;;6255771;28;20475;-62
2021/10/20 03:55:48;;;;;;;16.20;14.27;;;11.40;99.90;;;;;;6255822;28;20475;-62
2021/10/20 03:58:51;;;;;;;15.43;13.10;;;11.40;99.90;;;;;;6256596;28;20483;-62
2021/10/20 04:01:54;;;;;;;15.10;13.60;;;11.30;99.90;;;;;;6255378;28;20471;-62
2021/10/20 04:04:58;;;;;;;16.83;15.13;;;11.30;99.90;;;;;;6257020;28;20471;-63
2021/10/20 04:08:01;;;;;;;21.93;16.30;;;11.30;99.90;;;;;;6257370;28;20502;-63
2021/10/20 04:11:05;;;;;;;14.47;13.07;;;11.30;99.90;;;;;;6257138;28;20489;-62
2021/10/20 04:14:08;;;;;;;17.87;14.47;;;11.30;99.90;;;;;;6247115;28;20470;-62
2021/10/20 04:17:12;;;;;;;15.80;14.30;;;11.20;99.90;;;;;;6255885;28;20482;-63
2021/10/20 04:20:17;;;;;;;17.73;15.80;;;11.10;99.90;;;;;;6255512;28;20486;-63
2021/10/20 04:23:20;;;;;;;15.57;14.13;;;11.10;99.90;;;;;;6262050;28;20489;-62
2021/10/20 04:26:24;;;;;;;17.40;15.77;;;11.10;99.90;;;;;;6263507;28;20486;-62
2021/10/20 04:29:28;;;;;;;15.93;14.43;;;11.10;99.90;;;;;;6260078;28;20505;-62
2021/10/20 04:32:31;;;;;;;22.20;15.30;;;11.10;99.90;;;;;;6258413;28;20528;-63
2021/10/20 04:35:34;;;;;;;17.60;15.30;;;11.10;99.90;;;;;;6257880;28;20471;-63
2021/10/20 04:38:37;;;;;;;15.67;14.00;;;11.10;99.90;;;;;;6267795;28;20533;-63
2021/10/20 04:41:41;;;;;;;14.93;13.43;;;11.10;99.90;;;;;;6261582;28;20467;-63
2021/10/20 04:44:45;;;;;;;15.10;13.53;;;11.00;99.90;;;;;;6260609;28;20972;-63
2021/10/20 04:47:48;;;;;;;13.03;11.70;;;11.00;99.90;;;;;;6258732;28;20493;-63
2021/10/20 04:50:51;;;;;;;13.37;11.90;;;11.00;99.90;;;;;;6258423;28;20479;-63
2021/10/20 04:53:54;;;;;;;15.03;13.27;;;11.00;99.90;;;;;;6256448;28;20462;-64
2021/10/20 04:56:59;;;;;;;14.33;12.93;;;11.00;99.90;;;;;;6256373;28;20993;-62
2021/10/20 05:00:02;;;;;;;13.90;12.40;;;10.90;99.90;;;;;;6259163;28;21001;-63
2021/10/20 05:03:05;;;;;;;17.17;13.90;;;10.90;99.90;;;;;;6258689;28;20486;-63
2021/10/20 05:06:09;;;;;;;18.43;13.80;;;10.90;99.90;;;;;;6258663;28;20558;-64
2021/10/20 05:09:12;;;;;;;20.47;15.27;;;10.80;99.90;;;;;;6256527;28;20475;-63
2021/10/20 05:12:17;;;;;;;16.50;14.87;;;10.80;99.90;;;;;;6258710;28;20985;-62
2021/10/20 05:15:20;;;;;;;17.13;13.73;;;10.80;99.90;;;;;;6258840;28;20975;-63
2021/10/20 05:18:23;;;;;;;19.20;16.00;;;10.70;99.90;;;;;;6254191;28;20502;-62
2021/10/20 05:21:26;;;;;;;16.50;14.70;;;10.70;99.90;;;;;;6256132;28;20462;-63
2021/10/20 05:24:29;;;;;;;18.03;16.23;;;10.60;99.90;;;;;;6259065;28;20982;-63
2021/10/20 05:27:34;;;;;;;15.60;13.73;;;10.60;99.90;;;;;;6257375;28;20772;-63
2021/10/20 05:30:37;;;;;;;15.13;13.67;;;10.60;99.90;;;;;;6254661;28;20478;-63
2021/10/20 05:33:41;;;;;;;15.27;13.67;;;10.60;99.90;;;;;;6251724;28;20447;-61
2021/10/20 05:36:44;;;;;;;15.53;13.93;;;10.60;99.90;;;;;;6250833;28;20906;-61
2021/10/20 05:39:48;;;;;;;18.27;12.50;;;10.70;99.90;;;;;;6250599;28;20813;-62
2021/10/20 05:42:53;;;;;;;14.20;12.80;;;10.70;99.90;;;;;;6251138;28;20470;-62
2021/10/20 05:45:56;;;;;;;15.20;11.47;;;10.70;99.90;;;;;;6250695;28;20462;-62
2021/10/20 05:48:59;;;;;;;12.60;11.30;;;10.80;99.90;;;;;;6250596;28;20605;-62
2021/10/20 05:52:02;;;;;;;16.17;12.50;;;10.80;99.90;;;;;;6251059;28;20479;-61
2021/10/20 05:55:06;;;;;;;16.73;12.63;;;10.80;99.90;;;;;;6251174;28;20479;-61
2021/10/20 05:58:11;;;;;;;14.17;12.70;;;10.80;99.90;;;;;;6250177;28;20467;-61
2021/10/20 06:01:15;;;;;;;16.00;13.20;;;10.80;99.90;;;;;;6249566;28;20783;-61
2021/10/20 06:04:18;;;;;;;15.40;13.87;;;10.90;99.90;;;;;;6248755;28;20548;-61
2021/10/20 06:07:21;;;;;;;16.60;13.53;;;10.90;99.90;;;;;;6249248;28;20482;-61
2021/10/20 06:10:25;;;;;;;17.87;14.03;;;10.90;99.90;;;;;;6248802;28;20482;-61
2021/10/20 06:13:30;;;;;;;18.73;15.00;;;10.90;99.90;;;;;;6251564;28;20471;-62
2021/10/20 06:16:36;;;;;;;16.47;14.67;;;10.90;99.90;;;;;;6253740;28;20467;-63
2021/10/20 06:19:39;;;;;;;16.33;14.73;;;10.90;99.90;;;;;;6253273;28;20498;-63
2021/10/20 06:22:43;;;;;;;17.87;15.17;;;10.90;99.90;;;;;;6247122;28;20660;-63
2021/10/20 06:25:46;;;;;;;16.87;14.20;;;10.90;99.90;;;;;;6251132;28;20824;-63
2021/10/20 06:28:51;;;;;;;18.63;15.63;;;11.00;99.90;;;;;;6253412;28;20922;-62
2021/10/20 06:31:54;;;;;;;18.30;15.77;;;11.00;99.90;;;;;;6254056;28;20470;-63
2021/10/20 06:34:57;;;;;;;22.30;18.57;;;11.10;99.90;;;;;;6254170;28;20926;-63
2021/10/20 06:38:01;;;;;;;19.90;17.90;;;11.10;99.90;;;;;;6254630;28;20503;-62
2021/10/20 06:41:04;;;;;;;18.73;16.80;;;11.10;99.90;;;;;;6254639;28;20803;-62
2021/10/20 06:44:09;;;;;;;18.20;16.60;;;11.00;99.90;;;;;;6255586;28;20873;-62
2021/10/20 06:47:12;;;;;;;19.40;17.27;;;11.10;99.90;;;;;;6255607;28;20479;-62
2021/10/20 06:50:15;;;;;;;20.33;16.40;;;11.10;99.90;;;;;;6255525;28;20478;-62
2021/10/20 06:53:19;;;;;;;18.40;16.60;;;11.10;99.90;;;;;;6256878;28;20479;-62
2021/10/20 06:56:22;;;;;;;18.33;16.43;;;11.20;99.90;;;;;;6257005;28;20471;-62
2021/10/20 06:59:26;;;;;;;21.90;18.87;;;11.20;99.90;;;;;;6255470;28;20979;-62
2021/10/20 07:02:30;;;;;;;20.97;18.80;;;11.20;99.90;;;;;;6256324;28;20482;-63
2021/10/20 07:05:33;;;;;;;19.67;17.77;;;11.30;99.90;;;;;;6255643;28;20475;-62
2021/10/20 07:08:36;;;;;;;19.20;17.30;;;11.40;99.90;;;;;;6253766;28;20483;-62
2021/10/20 07:11:39;;;;;;;20.47;18.30;;;11.40;99.90;;;;;;6248194;28;20977;-59
2021/10/20 07:14:46;;;;;;;21.63;19.40;;;11.40;99.90;;;;;;6249358;28;20486;-61
2021/10/20 07:17:49;;;;;;;18.93;16.63;;;11.70;99.90;;;;;;6248579;28;20475;-60
2021/10/20 07:20:52;;;;;;;21.37;19.07;;;12.00;99.90;;;;;;6247887;28;20482;-61
2021/10/20 07:23:55;;;;;;;22.50;19.30;;;12.30;99.90;;;;;;6248432;28;20490;-62
2021/10/20 07:26:58;;;;;;;19.57;17.63;;;12.40;99.90;;;;;;6239104;28;20489;-62
2021/10/20 07:30:05;;;;;;;17.23;15.60;;;12.50;99.90;;;;;;6248780;28;20809;-62
2021/10/20 07:33:08;;;;;;;18.53;16.67;;;12.70;99.90;;;;;;6249357;28;20793;-61
2021/10/20 07:36:11;;;;;;;17.73;16.13;;;12.70;99.90;;;;;;6249490;28;20478;-62
2021/10/20 07:39:14;;;;;;;18.23;16.43;;;12.80;99.90;;;;;;6253004;28;20482;-61
2021/10/20 07:42:17;;;;;;;18.33;16.57;;;12.60;99.90;;;;;;6254054;28;20478;-62
2021/10/20 07:45:22;;;;;;;18.43;16.77;;;12.40;99.90;;;;;;6254521;28;20483;-62
2021/10/20 07:48:25;;;;;;;22.23;18.17;;;12.50;99.90;;;;;;6253569;28;20478;-62
2021/10/20 07:51:29;;;;;;;19.80;17.83;;;12.30;99.90;;;;;;6253808;28;20989;-62
2021/10/20 07:54:32;;;;;;;22.17;19.57;;;12.30;99.90;;;;;;6254120;28;20454;-62
2021/10/20 07:57:35;;;;;;;19.07;17.30;;;12.20;99.90;;;;;;6253592;28;20447;-62
2021/10/20 08:00:40;;;;;;;23.40;18.17;;;12.30;99.90;;;;;;6253849;28;20947;-61
2021/10/20 08:03:43;;;;;;;21.80;19.50;;;12.40;99.90;;;;;;6255026;28;21071;-63
2021/10/20 08:06:46;;;;;;;19.37;17.57;;;12.60;99.90;;;;;;6257519;28;20462;-63
2021/10/20 08:09:49;;;;;;;20.93;18.73;;;12.80;99.90;;;;;;6255477;28;20470;-63
2021/10/20 08:12:53;;;;;;;20.80;18.73;;;13.00;99.90;;;;;;6253408;28;20470;-62
2021/10/20 08:15:58;;;;;;;21.17;18.60;;;13.30;99.90;;;;;;6252967;28;20467;-62
2021/10/20 08:19:01;;;;;;;21.33;16.87;;;14.20;99.90;;;;;;6252591;28;20482;-62
2021/10/20 08:22:04;;;;;;;17.17;15.60;;;16.40;99.90;;;;;;6252713;28;20997;-62
2021/10/20 08:25:10;;;;;;;17.20;15.53;;;20.20;96.30;;;;;;6252709;28;20776;-62
2021/10/20 08:28:14;;;;;;;19.10;17.17;;;23.90;83.00;;;;;;6248881;28;20240;-63
2021/10/20 08:31:23;;;;;;;17.10;15.63;;;27.40;65.60;;;;;;6253583;28;20228;-63
2021/10/20 08:34:26;;;;;;;18.27;16.57;;;30.20;52.30;;;;;;6253715;28;20234;-62
2021/10/20 08:37:29;;;;;;;18.27;16.45;;;32.60;45.30;;;;;;6252631;28;20235;-62
2021/10/20 08:40:34;;;;;;;18.92;17.13;;;34.40;39.40;;;;;;6254279;28;20235;-64
2021/10/20 08:43:38;;;;;;;18.23;16.50;;;35.30;36.70;;;;;;6252493;28;20223;-65
2021/10/20 08:46:43;;;;;;;16.73;15.30;;;36.80;33.40;;;;;;6251827;28;20544;-65
2021/10/20 08:49:48;;;;;;;16.98;15.63;;;37.70;31.10;;;;;;6251895;28;20232;-65
2021/10/20 08:52:52;;;;;;;16.23;14.93;;;38.90;29.40;;;;;;6253589;28;20232;-65
2021/10/20 08:55:55;;;;;;;15.05;13.95;;;39.50;28.10;;;;;;6256279;28;20239;-63
2021/10/20 08:59:00;;;;;;;14.50;13.20;;;39.70;27.30;;;;;;6253824;28;20240;-64
2021/10/20 09:02:05;;;;;;;13.82;12.60;;;40.60;26.50;;;;;;6248966;28;20238;-65
2021/10/20 09:05:10;;;;;;;15.00;13.70;;;41.40;25.50;;;;;;6235791;28;20552;-65
2021/10/20 09:08:13;;;;;;;14.18;13.10;;;42.30;24.70;;;;;;6243710;28;20250;-66
2021/10/20 09:11:32;;;;;;;12.05;11.13;;;42.70;24.10;;;;;;6243030;28;20221;-66
2021/10/20 09:14:35;;;;;;;11.75;10.85;;;42.70;23.80;;;;;;6227151;28;20245;-66
2021/10/20 09:17:49;;;;;;;11.20;10.30;;;42.90;23.50;;;;;;6225543;28;20694;-65
2021/10/20 09:20:54;;;;;;;14.07;13.07;;;43.30;22.90;;;;;;6241571;28;20698;-65
2021/10/20 09:24:10;;;;;;;14.68;13.57;;;42.10;23.50;;;;;;6249615;28;20235;-65
2021/10/20 09:27:21;;;;;;;14.38;13.38;;;42.10;23.80;;;;;;6249781;28;20692;-65
2021/10/20 09:30:25;;;;;;;12.52;11.65;;;42.90;23.30;;;;;;6244908;28;20236;-65
2021/10/20 09:33:33;;;;;;;12.63;11.40;;;44.00;22.40;;;;;;6222350;28;20634;-65
2021/10/20 09:36:37;;;;;;;11.10;10.40;;;44.80;21.90;;;;;;6230744;28;20219;-66
2021/10/20 09:39:40;;;;;;;11.05;10.23;;;45.40;21.20;;;;;;6249609;28;20226;-67
2021/10/20 09:42:45;;;;;;;11.10;10.25;;;45.70;21.00;;;;;;6248743;28;20206;-67
2021/10/20 09:45:49;;;;;;;10.90;10.10;;;45.10;21.10;;;;;;6248624;28;20694;-66
2021/10/20 09:48:53;;;;;;;10.20;9.50;;;45.60;20.70;;;;;;6248809;28;20231;-66
2021/10/20 09:51:59;;;;;;;11.65;10.73;;;45.90;20.50;;;;;;6249192;28;20225;-64
2021/10/20 09:55:02;;;;;;;11.07;10.18;;;46.50;20.20;;;;;;6248499;28;20559;-65
2021/10/20 09:58:12;;;;;;;10.18;9.40;;;47.30;19.80;;;;;;6248340;28;20399;-66
2021/10/20 10:01:17;;;;;;;8.18;7.40;;;47.60;19.30;;;;;;6248736;28;20245;-65
2021/10/20 10:04:22;;;;;;;9.05;8.13;;;48.10;18.90;;;;;;6248739;28;20654;-65
2021/10/20 10:07:25;;;;;;;8.85;8.25;;;48.60;18.20;;;;;;6248894;28;20276;-65
2021/10/20 10:10:29;;;;;;;7.95;7.35;;;48.40;17.90;;;;;;6243252;28;20227;-67
2021/10/20 10:13:36;;;;;;;8.35;7.75;;;49.00;18.20;;;;;;6248092;28;20220;-66
2021/10/20 10:16:42;;;;;;;7.82;7.13;;;49.20;17.70;;;;;;6247849;28;20249;-67
2021/10/20 10:19:47;;;;;;;8.38;7.68;;;49.40;17.60;;;;;;6248529;28;20229;-67
2021/10/20 10:22:52;;;;;;;6.95;6.45;;;49.50;17.80;;;;;;6248236;28;20240;-67
2021/10/20 10:26:01;;;;;;;8.20;7.50;;;50.20;17.30;;;;;;6248254;28;20240;-65
2021/10/20 10:29:10;;;;;;;8.02;6.72;;;50.00;17.00;;;;;;6248132;28;20251;-67
2021/10/20 10:32:14;;;;;;;8.15;7.47;;;49.80;17.00;;;;;;6248117;28;20252;-66
2021/10/20 10:35:18;;;;;;;8.27;7.53;;;49.80;17.00;;;;;;6247862;28;20238;-67
2021/10/20 10:38:35;;;;;;;8.07;7.45;;;50.40;16.80;;;;;;6220855;28;20246;-67
2021/10/20 10:41:45;;;;;;;7.30;6.70;;;50.70;16.50;;;;;;6223641;28;20706;-67
2021/10/20 10:44:50;;;;;;;7.45;6.95;;;51.30;16.20;;;;;;6223585;28;20235;-67
2021/10/20 10:48:00;;;;;;;8.43;7.60;;;51.50;15.90;;;;;;6223740;28;20231;-67
2021/10/20 10:51:14;;;;;;;7.00;6.40;;;51.70;15.70;;;;;;6239352;28;20544;-66
2021/10/20 10:54:33;;;;;;;7.65;7.25;;;51.80;15.10;;;;;;6247980;28;20242;-65
2021/10/20 10:57:41;;;;;;;9.05;7.95;;;51.10;15.90;;;;;;6248401;28;20674;-66
2021/10/20 11:00:47;;;;;;;7.90;7.40;;;50.50;16.30;;;;;;6247722;28;20745;-67
2021/10/20 11:04:15;;;;;;;7.55;7.00;;;47.60;17.60;;;;;;6248438;28;20230;-65
2021/10/20 11:07:23;;;;;;;7.40;6.80;;;47.80;17.60;;;;;;6248345;28;20228;-64
2021/10/20 11:10:26;;;;;;;6.93;6.43;;;49.00;16.90;;;;;;6246399;28;20229;-65
2021/10/20 11:13:31;;;;;;;7.03;6.43;;;50.00;16.40;;;;;;6252209;28;20242;-65
2021/10/20 11:16:36;;;;;;;6.88;6.28;;;50.90;15.90;;;;;;6252544;28;20329;-65
2021/10/20 11:19:39;;;;;;;6.82;6.18;;;51.50;15.30;;;;;;6252875;28;20309;-67
2021/10/20 11:22:50;;;;;;;6.30;5.90;;;51.50;15.60;;;;;;6252011;28;20228;-65
2021/10/20 11:25:53;;;;;;;6.35;5.78;;;50.80;15.80;;;;;;6252453;28;20297;-66
2021/10/20 11:29:06;;;;;;;5.43;5.13;;;50.60;15.90;;;;;;6252266;28;20250;-69
2021/10/20 11:32:11;;;;;;;6.55;6.05;;;51.10;15.80;;;;;;6252652;28;20240;-68
2021/10/20 11:35:17;;;;;;;6.25;5.82;;;50.60;15.70;;;;;;6252125;28;20689;-66
2021/10/20 11:38:32;;;;;;;6.40;5.90;;;50.20;16.00;;;;;;6251692;28;20238;-65
2021/10/20 11:41:36;;;;;;;7.63;6.85;;;50.70;16.00;;;;;;6247651;28;20235;-65
2021/10/20 11:44:40;;;;;;;6.25;5.78;;;50.00;15.90;;;;;;6251928;28;20243;-65
2021/10/20 11:47:43;;;;;;;6.25;5.80;;;49.60;16.40;;;;;;6252183;28;20233;-66
2021/10/20 11:50:51;;;;;;;6.70;6.10;;;49.70;16.70;;;;;;6251752;28;20241;-67
2021/10/20 11:53:55;;;;;;;6.65;6.25;;;50.20;16.70;;;;;;6251877;28;20232;-65
2021/10/20 11:57:00;;;;;;;6.97;6.40;;;48.90;17.40;;;;;;6251813;28;20243;-65
2021/10/20 12:00:05;;;;;;;6.65;6.25;;;48.00;17.80;;;;;;6251416;28;20264;-66
2021/10/20 12:03:09;;;;;;;7.15;6.55;;;47.30;18.50;;;;;;6251420;28;20312;-66
2021/10/20 12:06:14;;;;;;;7.97;7.20;;;46.80;18.90;;;;;;6251627;28;20227;-66
2021/10/20 12:09:20;;;;;;;7.50;7.00;;;47.00;18.90;;;;;;6251251;28;20246;-65
2021/10/20 12:12:23;;;;;;;7.82;7.22;;;47.90;18.60;;;;;;6232264;28;20236;-65
2021/10/20 12:15:26;;;;;;;8.82;8.13;;;48.30;18.40;;;;;;6226724;28;20246;-67
2021/10/20 12:18:31;;;;;;;8.82;8.13;;;47.00;19.10;;;;;;6227249;28;20239;-65
2021/10/20 12:21:35;;;;;;;8.45;7.80;;;45.20;20.10;;;;;;6227323;28;20210;-64
2021/10/20 12:24:42;;;;;;;7.80;7.30;;;40.80;23.30;;;;;;6228767;28;20210;-65
2021/10/20 12:27:45;;;;;;;8.18;7.50;;;40.30;23.90;;;;;;6226970;28;20661;-64
2021/10/20 12:30:48;;;;;;;7.10;6.60;;;42.00;22.70;;;;;;6228313;28;20229;-65
2021/10/20 12:33:53;;;;;;;8.05;7.43;;;42.70;21.80;;;;;;6228248;28;20239;-67
2021/10/20 12:36:57;;;;;;;8.07;7.55;;;43.90;20.90;;;;;;6234316;28;20243;-66
2021/10/20 12:40:13;;;;;;;7.65;7.00;;;44.50;20.40;;;;;;6251175;28;20247;-65
2021/10/20 12:43:18;;;;;;;8.30;7.68;;;44.90;20.10;;;;;;6250388;28;20241;-65
2021/10/20 12:46:22;;;;;;;7.90;7.35;;;44.10;20.40;;;;;;6244540;28;20240;-66
2021/10/20 12:49:34;;;;;;;7.35;6.80;;;44.00;20.20;;;;;;6249616;28;20228;-68
2021/10/20 12:52:38;;;;;;;7.82;7.32;;;43.70;20.80;;;;;;6249807;28;20552;-66
2021/10/20 12:55:45;;;;;;;7.80;7.20;;;43.80;20.60;;;;;;6249976;28;20287;-66
2021/10/20 12:58:48;;;;;;;7.78;7.28;;;43.20;20.70;;;;;;6250319;28;20246;-66
2021/10/20 13:01:51;;;;;;;7.70;7.20;;;42.10;21.60;;;;;;6251150;28;20238;-66
2021/10/20 13:04:54;;;;;;;7.53;6.95;;;42.30;21.70;;;;;;6250302;28;20308;-64
2021/10/20 13:07:57;;;;;;;6.80;6.30;;;42.80;21.50;;;;;;6250162;28;20241;-66
2021/10/20 13:11:22;;;;;;;6.75;6.25;;;43.10;20.90;;;;;;6239009;28;20306;-66
2021/10/20 13:14:25;;;;;;;6.97;6.38;;;42.00;21.60;;;;;;6225136;28;20240;-66
2021/10/20 13:17:28;;;;;;;6.53;6.03;;;42.40;21.40;;;;;;6225419;28;20238;-66
2021/10/20 13:20:31;;;;;;;8.23;7.55;;;41.70;21.60;;;;;;6225003;28;20236;-65
2021/10/20 13:23:36;;;;;;;7.50;6.90;;;40.50;22.60;;;;;;6245417;28;20582;-66
2021/10/20 13:26:41;;;;;;;6.85;6.45;;;41.30;22.40;;;;;;6247243;28;20802;-66
2021/10/20 13:29:44;;;;;;;7.60;7.00;;;41.60;22.10;;;;;;6246576;28;20231;-67
2021/10/20 13:32:47;;;;;;;6.45;5.93;;;39.30;24.00;;;;;;6238792;28;20231;-65
2021/10/20 13:35:50;;;;;;;8.02;7.43;;;38.50;24.50;;;;;;6241408;28;20228;-65
2021/10/20 13:38:53;;;;;;;8.25;7.65;;;36.40;25.90;;;;;;6246937;28;20679;-64
2021/10/20 13:41:58;;;;;;;7.03;6.53;;;34.50;27.80;;;;;;6249404;28;20693;-64
2021/10/20 13:45:04;;;;;;;7.43;6.78;;;32.90;29.40;;;;;;6249548;28;20232;-63
2021/10/20 13:48:08;;;;;;;7.38;6.78;;;31.70;30.80;;;;;;6248803;28;20242;-63
2021/10/20 13:51:11;;;;;;;8.60;7.90;;;30.50;32.80;;;;;;6215855;28;20603;-63
2021/10/20 13:54:14;;;;;;;8.20;7.50;;;28.80;35.70;;;;;;6224599;28;20232;-63
2021/10/20 13:57:19;;;;;;;7.97;7.27;;;27.90;37.70;;;;;;6224297;28;20243;-65
2021/10/20 14:00:23;;;;;;;9.57;7.97;;;27.10;39.00;;;;;;6224402;28;20232;-64
2021/10/20 14:03:26;;;;;;;8.27;7.60;;;26.50;40.30;;;;;;6231028;28;20235;-64
2021/10/20 14:06:30;;;;;;;7.90;7.30;;;26.00;41.50;;;;;;6248902;28;20218;-63
2021/10/20 14:09:33;;;;;;;8.40;7.70;;;25.40;42.90;;;;;;6248304;28;20671;-64
2021/10/20 14:12:38;;;;;;;8.70;7.50;;;25.00;43.90;;;;;;6227590;28;20205;-63
2021/10/20 14:15:42;;;;;;;9.17;8.37;;;24.70;44.40;;;;;;6239560;28;20203;-63
2021/10/20 14:18:45;;;;;;;10.80;8.93;;;24.40;45.40;;;;;;6238004;28;20279;-63
2021/10/20 14:21:49;;;;;;;9.70;7.63;;;24.20;45.90;;;;;;6237945;28;20626;-63
2021/10/20 14:24:52;;;;;;;7.90;7.20;;;24.10;46.80;;;;;;6225462;28;20829;-63
2021/10/20 14:27:56;;;;;;;8.90;7.97;;;23.80;47.30;;;;;;6226831;28;20251;-66
2021/10/20 14:31:00;;;;;;;10.30;9.30;;;23.50;48.10;;;;;;6247945;28;20236;-64
2021/10/20 14:34:03;;;;;;;9.67;8.67;;;23.10;49.20;;;;;;6248529;28;20597;-65
2021/10/20 14:37:06;;;;;;;11.23;10.23;;;22.90;49.80;;;;;;6248221;28;20557;-66
2021/10/20 14:40:12;;;;;;;10.70;9.70;;;22.80;50.40;;;;;;6248077;28;20243;-65
2021/10/20 14:43:16;;;;;;;10.33;8.80;;;22.50;51.10;;;;;;6248482;28;20235;-64
2021/10/20 14:46:20;;;;;;;8.40;7.70;;;22.40;51.40;;;;;;6251133;28;20250;-63
2021/10/20 14:49:23;;;;;;;10.10;9.20;;;22.30;51.80;;;;;;6246802;28;20243;-67
2021/10/20 14:52:26;;;;;;;21.30;15.20;;;22.20;52.50;;;;;;6249218;28;20236;-65
2021/10/20 14:55:29;;;;;;;16.43;12.97;;;22.10;53.40;;;;;;6253383;28;20247;-66
2021/10/20 14:58:34;;;;;;;10.27;9.37;;;22.00;54.40;;;;;;6253494;28;20232;-65
2021/10/20 15:01:37;;;;;;;12.07;10.97;;;21.90;54.60;;;;;;6253098;28;20554;-65
2021/10/20 15:04:42;;;;;;;20.00;15.17;;;21.90;55.30;;;;;;6252403;28;20847;-65
2021/10/20 15:07:56;;;;;;;12.83;11.70;;;21.80;55.90;;;;;;6253431;28;20645;-65
2021/10/20 15:10:59;;;;;;;16.93;10.57;;;21.70;56.20;;;;;;6244905;28;20228;-64
2021/10/20 15:14:04;;;;;;;13.60;10.27;;;21.70;56.50;;;;;;6228582;28;20248;-65
2021/10/20 15:17:07;;;;;;;21.53;16.40;;;21.70;57.10;;;;;;6228055;28;20233;-65
2021/10/20 15:20:13;;;;;;;55.77;30.67;;;21.60;57.80;;;;;;6227848;28;20240;-65
2021/10/20 15:23:16;;;;;;;25.07;17.10;;;21.50;58.10;;;;;;6227849;28;20672;-65
2021/10/20 15:26:20;;;;;;;12.70;11.40;;;21.50;58.70;;;;;;6227997;28;20243;-64
2021/10/20 15:29:24;;;;;;;11.80;10.70;;;21.40;59.20;;;;;;6227784;28;20232;-65
2021/10/20 15:32:28;;;;;;;11.77;10.67;;;21.30;59.50;;;;;;6239377;28;20234;-65
2021/10/20 15:35:31;;;;;;;12.20;11.20;;;21.20;60.00;;;;;;6253026;28;20251;-64
2021/10/20 15:38:35;;;;;;;11.17;10.27;;;21.10;60.90;;;;;;6232376;28;20232;-64
2021/10/20 15:41:39;;;;;;;11.00;10.00;;;21.00;61.70;;;;;;6227570;28;20343;-65
2021/10/20 15:44:44;;;;;;;11.10;10.13;;;20.90;62.80;;;;;;6227575;28;20236;-64